createdAt,value
2022-10-13T00:01:43.528Z,11.83
2022-10-13T00:04:10.397Z,16.73
2022-10-13T00:06:36.743Z,10.10
2022-10-13T00:09:03.707Z,10.93
2022-10-13T00:11:30.831Z,13.37
2022-10-13T00:13:59.605Z,10.67
2022-10-13T00:16:27.012Z,10.87
2022-10-13T00:18:53.488Z,11.37
2022-10-13T00:21:23.610Z,12.00
2022-10-13T00:23:51.397Z,7.17
2022-10-13T00:26:18.115Z,7.77
2022-10-13T00:28:48.457Z,10.70
2022-10-13T00:31:30.902Z,8.50
2022-10-13T00:33:59.797Z,10.77
2022-10-13T00:36:28.983Z,13.53
2022-10-13T00:38:56.915Z,9.73
2022-10-13T00:41:23.255Z,10.00
2022-10-13T00:44:07.343Z,12.50
2022-10-13T00:46:36.897Z,11.40
2022-10-13T00:49:23.081Z,17.60
2022-10-13T00:51:50.601Z,12.93
2022-10-13T00:54:22.632Z,13.57
2022-10-13T00:56:51.376Z,11.13
2022-10-13T00:59:28.915Z,15.03
2022-10-13T01:01:57.720Z,12.53
2022-10-13T01:04:27.872Z,16.50
2022-10-13T01:06:55.671Z,12.43
2022-10-13T01:09:22.103Z,16.13
2022-10-13T01:11:55.320Z,12.30
2022-10-13T01:14:50.906Z,11.90
2022-10-13T01:17:51.090Z,10.63
2022-10-13T01:20:32.669Z,14.30
2022-10-13T01:23:17.364Z,12.60
2022-10-13T01:26:14.813Z,11.80
2022-10-13T01:28:59.964Z,12.60
2022-10-13T01:31:52.024Z,14.40
2022-10-13T01:34:38.539Z,13.00
2022-10-13T01:37:30.184Z,13.87
2022-10-13T01:40:17.739Z,21.70
2022-10-13T01:43:02.292Z,16.63
2022-10-13T01:45:35.580Z,15.90
2022-10-13T01:48:04.564Z,16.80
2022-10-13T01:50:32.801Z,19.93
2022-10-13T01:53:02.176Z,15.47
2022-10-13T01:55:29.683Z,13.13
2022-10-13T01:57:56.243Z,13.67
2022-10-13T02:00:22.889Z,16.73
2022-10-13T02:03:09.900Z,20.13
2022-10-13T02:05:51.587Z,14.30
2022-10-13T02:08:38.067Z,15.27
2022-10-13T02:11:15.601Z,25.03
2022-10-13T02:13:49.191Z,15.60
2022-10-13T02:16:16.231Z,17.87
2022-10-13T02:18:43.795Z,17.63
2022-10-13T02:21:10.521Z,18.57
2022-10-13T02:23:36.943Z,17.07
2022-10-13T02:26:03.809Z,16.63
2022-10-13T02:28:30.332Z,19.23
2022-10-13T02:30:56.836Z,21.93
2022-10-13T02:33:23.183Z,19.80
2022-10-13T02:35:49.699Z,16.30
2022-10-13T02:38:16.090Z,19.70
2022-10-13T02:40:42.483Z,13.23
2022-10-13T02:43:08.878Z,20.67
2022-10-13T02:45:35.253Z,14.57
2022-10-13T02:48:01.730Z,17.73
2022-10-13T02:50:28.286Z,15.80
2022-10-13T02:52:54.749Z,17.07
2022-10-13T02:55:21.315Z,18.83
2022-10-13T02:57:47.671Z,22.43
2022-10-13T03:00:14.743Z,16.57
2022-10-13T03:02:42.134Z,14.70
2022-10-13T03:05:09.477Z,16.30
2022-10-13T03:07:36.058Z,19.97
2022-10-13T03:10:02.481Z,17.50
2022-10-13T03:12:28.839Z,16.47
2022-10-13T03:14:55.191Z,17.03
2022-10-13T03:17:21.652Z,19.57
2022-10-13T03:19:48.265Z,18.63
2022-10-13T03:22:15.408Z,17.60
2022-10-13T03:24:42.459Z,12.30
2022-10-13T03:27:09.292Z,13.43
2022-10-13T03:29:35.683Z,12.70
2022-10-13T03:32:02.083Z,12.20
2022-10-13T03:34:28.447Z,15.77
2022-10-13T03:36:54.835Z,18.70
2022-10-13T03:39:22.063Z,17.80
2022-10-13T03:41:48.551Z,13.93
2022-10-13T03:44:14.898Z,14.60
2022-10-13T03:46:41.324Z,12.93
2022-10-13T03:49:07.739Z,17.53
2022-10-13T03:51:34.233Z,13.37
2022-10-13T03:54:00.588Z,12.80
2022-10-13T03:56:28.021Z,12.40
2022-10-13T03:58:59.688Z,14.37
2022-10-13T04:01:29.048Z,14.90
2022-10-13T04:03:56.682Z,13.77
2022-10-13T04:06:25.028Z,10.97
2022-10-13T04:08:52.272Z,16.33
2022-10-13T04:11:19.743Z,12.73
2022-10-13T04:13:46.381Z,15.43
2022-10-13T04:16:24.969Z,12.90
2022-10-13T04:19:00.458Z,12.73
2022-10-13T04:21:28.675Z,12.40
2022-10-13T04:23:57.216Z,11.07
2022-10-13T04:26:25.789Z,10.10
2022-10-13T04:28:55.360Z,12.73
2022-10-13T04:31:23.296Z,12.77
2022-10-13T04:33:50.246Z,9.20
2022-10-13T04:36:18.283Z,10.77
2022-10-13T04:38:44.807Z,13.53
2022-10-13T04:41:12.552Z,14.67
2022-10-13T04:43:38.916Z,13.03
2022-10-13T04:46:14.015Z,14.20
2022-10-13T04:48:41.022Z,10.03
2022-10-13T04:51:10.166Z,8.63
2022-10-13T04:53:36.775Z,13.43
2022-10-13T04:56:23.104Z,13.03
2022-10-13T04:58:49.737Z,9.87
2022-10-13T05:01:21.695Z,11.30
2022-10-13T05:03:53.456Z,11.37
2022-10-13T05:06:27.091Z,10.07
2022-10-13T05:08:53.535Z,11.27
2022-10-13T05:11:20.501Z,10.97
2022-10-13T05:13:48.161Z,16.40
2022-10-13T05:16:16.733Z,14.43
2022-10-13T05:18:43.440Z,7.87
2022-10-13T05:21:12.788Z,12.07
2022-10-13T05:23:40.331Z,10.97
2022-10-13T05:26:09.759Z,12.53
2022-10-13T05:28:36.504Z,17.10
2022-10-13T05:31:21.335Z,10.73
2022-10-13T05:33:48.581Z,14.63
2022-10-13T05:36:17.471Z,14.53
2022-10-13T05:38:43.908Z,11.03
2022-10-13T05:41:12.776Z,12.60
2022-10-13T05:43:40.941Z,16.00
2022-10-13T05:46:08.017Z,10.47
2022-10-13T05:48:34.982Z,11.00
2022-10-13T05:51:05.303Z,12.03
2022-10-13T05:53:34.809Z,10.50
2022-10-13T05:56:07.006Z,10.37
2022-10-13T05:58:43.141Z,12.20
2022-10-13T06:01:13.405Z,12.10
2022-10-13T06:03:42.088Z,12.33
2022-10-13T06:06:09.503Z,10.97
2022-10-13T06:08:36.990Z,12.80
2022-10-13T06:11:05.419Z,12.83
2022-10-13T06:13:31.808Z,21.20
2022-10-13T06:15:58.155Z,14.20
2022-10-13T06:18:24.843Z,12.73
2022-10-13T06:20:51.300Z,15.83
2022-10-13T06:23:17.728Z,11.80
2022-10-13T06:25:51.787Z,11.77
2022-10-13T06:28:19.199Z,10.93
2022-10-13T06:30:54.635Z,13.10
2022-10-13T06:33:22.125Z,17.03
2022-10-13T06:35:48.717Z,11.23
2022-10-13T06:38:15.059Z,12.80
2022-10-13T06:40:42.128Z,8.27
2022-10-13T06:43:09.597Z,10.43
2022-10-13T06:45:39.362Z,13.90
2022-10-13T06:48:05.928Z,15.43
2022-10-13T06:50:32.334Z,11.63
2022-10-13T06:52:58.692Z,13.60
2022-10-13T06:55:25.063Z,11.00
2022-10-13T06:57:52.383Z,16.33
2022-10-13T07:00:18.927Z,13.93
2022-10-13T07:02:45.385Z,18.77
2022-10-13T07:05:11.934Z,12.97
2022-10-13T07:07:38.271Z,15.10
2022-10-13T07:10:04.947Z,19.17
2022-10-13T07:12:31.296Z,12.87
2022-10-13T07:14:57.634Z,14.33
2022-10-13T07:17:24.174Z,13.97
2022-10-13T07:19:51.355Z,12.53
2022-10-13T07:22:17.868Z,13.07
2022-10-13T07:24:44.774Z,12.00
2022-10-13T07:27:11.168Z,11.00
2022-10-13T07:29:37.608Z,17.87
2022-10-13T07:32:04.172Z,10.53
2022-10-13T07:34:30.569Z,15.40
2022-10-13T07:36:56.943Z,12.23
2022-10-13T07:39:23.371Z,14.53
2022-10-13T07:41:51.320Z,9.57
2022-10-13T07:44:18.052Z,13.50
2022-10-13T07:46:44.718Z,12.93
2022-10-13T07:49:15.251Z,15.73
2022-10-13T07:51:43.086Z,14.37
2022-10-13T07:54:10.388Z,14.97
2022-10-13T07:56:37.438Z,17.43
2022-10-13T07:59:05.453Z,10.30
2022-10-13T08:01:32.127Z,12.57
2022-10-13T08:03:59.200Z,10.90
2022-10-13T08:06:27.468Z,15.57
2022-10-13T08:08:53.859Z,11.20
2022-10-13T08:11:20.338Z,10.73
2022-10-13T08:13:51.226Z,16.00
2022-10-13T08:16:18.188Z,10.03
2022-10-13T08:18:45.978Z,12.53
2022-10-13T08:21:57.457Z,13.10
2022-10-13T08:24:04.636Z,16.87
2022-10-13T08:26:32.393Z,11.93
2022-10-13T08:31:45.495Z,12.80
2022-10-13T08:34:12.575Z,14.30
2022-10-13T08:36:39.584Z,10.70
2022-10-13T08:39:06.453Z,13.03
2022-10-13T08:41:37.524Z,8.23
2022-10-13T08:44:59.230Z,7.87
2022-10-13T08:47:06.939Z,13.67
2022-10-13T08:49:33.870Z,11.90
2022-10-13T08:52:05.298Z,8.97
2022-10-13T08:54:33.281Z,8.40
2022-10-13T08:59:27.384Z,12.97
2022-10-13T09:01:55.472Z,6.03
2022-10-13T09:04:36.074Z,11.10
2022-10-13T09:07:07.031Z,11.27
2022-10-13T09:09:33.505Z,11.20
2022-10-13T09:12:00.332Z,8.73
2022-10-13T09:14:31.576Z,10.17
2022-10-13T09:17:16.307Z,7.23
2022-10-13T09:19:43.801Z,8.93
2022-10-13T09:22:22.237Z,10.70
2022-10-13T09:25:07.805Z,7.03
2022-10-13T09:27:59.177Z,8.40
2022-10-13T09:31:28.487Z,10.23
2022-10-13T09:34:00.923Z,7.23
2022-10-13T09:36:28.464Z,8.63
2022-10-13T09:39:16.437Z,12.83
2022-10-13T09:41:43.829Z,7.90
2022-10-13T09:44:17.504Z,9.60
2022-10-13T09:46:59.184Z,8.57
2022-10-13T09:49:40.270Z,10.27
2022-10-13T09:52:29.812Z,5.53
2022-10-13T09:55:00.930Z,7.77
2022-10-13T09:57:39.471Z,8.43
2022-10-13T10:00:15.302Z,9.77
2022-10-13T10:03:05.489Z,7.90
2022-10-13T10:05:44.936Z,12.10
2022-10-13T10:08:33.954Z,8.40
2022-10-13T10:11:12.479Z,10.43
2022-10-13T10:13:38.963Z,7.77
2022-10-13T10:16:20.505Z,6.93
2022-10-13T10:18:57.743Z,10.13
2022-10-13T10:21:27.981Z,10.23
2022-10-13T10:23:58.283Z,8.07
2022-10-13T10:26:47.087Z,8.83
2022-10-13T10:29:26.187Z,8.20
2022-10-13T10:32:11.211Z,7.50
2022-10-13T10:34:46.552Z,7.47
2022-10-13T10:37:40.549Z,11.47
2022-10-13T10:40:38.021Z,5.60
2022-10-13T10:43:13.685Z,8.93
2022-10-13T10:45:40.728Z,6.23
2022-10-13T10:48:32.961Z,6.13
2022-10-13T10:51:01.092Z,9.77
2022-10-13T10:53:40.426Z,12.57
2022-10-13T10:56:15.538Z,6.33
2022-10-13T10:59:05.115Z,8.30
2022-10-13T11:01:45.161Z,6.97
2022-10-13T11:04:20.827Z,8.53
2022-10-13T11:06:47.572Z,6.73
2022-10-13T11:09:14.023Z,9.70
2022-10-13T11:11:42.223Z,5.20
2022-10-13T11:14:08.709Z,6.90
2022-10-13T11:16:40.242Z,11.07
2022-10-13T11:19:29.710Z,9.40
2022-10-13T11:21:59.011Z,6.27
2022-10-13T11:24:39.244Z,10.93
2022-10-13T11:27:17.579Z,9.47
2022-10-13T11:29:47.257Z,7.73
2022-10-13T11:32:36.765Z,7.57
2022-10-13T11:35:05.912Z,5.70
2022-10-13T11:37:51.733Z,8.23
2022-10-13T11:40:35.122Z,8.40
2022-10-13T11:43:09.815Z,4.50
2022-10-13T11:46:14.677Z,5.57
2022-10-13T11:49:02.786Z,4.77
2022-10-13T11:51:38.550Z,7.43
2022-10-13T11:54:34.561Z,4.73
2022-10-13T11:57:01.419Z,7.67
2022-10-13T11:59:33.687Z,4.97
2022-10-13T12:02:14.517Z,7.40
2022-10-13T12:04:46.806Z,8.03
2022-10-13T12:07:15.741Z,4.53
2022-10-13T12:09:51.563Z,8.33
2022-10-13T12:12:24.535Z,9.80
2022-10-13T12:14:54.456Z,9.03
2022-10-13T12:17:31.797Z,6.07
2022-10-13T12:20:20.334Z,8.13
2022-10-13T12:22:51.170Z,5.47
2022-10-13T12:25:19.639Z,6.47
2022-10-13T12:27:50.091Z,10.17
2022-10-13T12:30:25.290Z,6.97
2022-10-13T12:32:54.353Z,6.00
2022-10-13T12:35:32.513Z,6.63
2022-10-13T12:38:13.173Z,6.40
2022-10-13T12:40:40.694Z,9.97
2022-10-13T12:43:07.219Z,8.90
2022-10-13T12:45:34.880Z,5.53
2022-10-13T12:48:01.404Z,4.90
2022-10-13T12:50:36.899Z,9.27
2022-10-13T12:53:12.019Z,3.90
2022-10-13T12:55:55.083Z,7.80
2022-10-13T12:58:28.965Z,4.80
2022-10-13T13:00:58.126Z,6.77
2022-10-13T13:03:29.090Z,7.03
2022-10-13T13:06:31.859Z,10.97
2022-10-13T13:09:15.672Z,6.47
2022-10-13T13:11:42.007Z,6.97
2022-10-13T13:14:35.565Z,6.03
2022-10-13T13:17:09.290Z,7.73
2022-10-13T13:19:36.618Z,7.53
2022-10-13T13:22:05.687Z,5.43
2022-10-13T13:24:40.114Z,8.00
2022-10-13T13:27:19.916Z,3.70
2022-10-13T13:29:46.943Z,3.37
2022-10-13T13:32:19.834Z,4.63
2022-10-13T13:34:46.898Z,6.17
2022-10-13T13:37:24.590Z,6.47
2022-10-13T13:39:51.080Z,6.83
2022-10-13T13:42:17.749Z,9.83
2022-10-13T13:44:44.171Z,3.37
2022-10-13T13:47:16.953Z,5.63
2022-10-13T13:49:43.648Z,8.50
2022-10-13T13:52:10.071Z,7.03
2022-10-13T13:54:36.540Z,7.47
2022-10-13T13:57:03.188Z,7.27
2022-10-13T13:59:29.580Z,7.33
2022-10-13T14:01:56.062Z,5.70
2022-10-13T14:04:22.606Z,6.57
2022-10-13T14:06:49.020Z,6.73
2022-10-13T14:09:15.442Z,4.53
2022-10-13T14:11:41.823Z,4.37
2022-10-13T14:14:08.230Z,5.47
2022-10-13T14:16:34.611Z,7.27
2022-10-13T14:19:01.060Z,3.33
2022-10-13T14:21:27.462Z,7.63
2022-10-13T14:23:53.875Z,4.77
2022-10-13T14:26:20.332Z,6.60
2022-10-13T14:28:46.984Z,4.03
2022-10-13T14:31:13.504Z,6.93
2022-10-13T14:33:39.892Z,4.17
2022-10-13T14:36:07.417Z,5.47
2022-10-13T14:38:34.524Z,5.23
2022-10-13T14:41:02.460Z,3.83
2022-10-13T14:43:29.419Z,5.33
2022-10-13T14:45:56.220Z,5.87
2022-10-13T14:48:24.760Z,4.90
2022-10-13T14:50:52.692Z,10.33
2022-10-13T14:53:19.132Z,9.27
2022-10-13T14:55:45.543Z,11.77
2022-10-13T14:58:12.271Z,10.07
2022-10-13T15:00:38.887Z,5.50
2022-10-13T15:03:05.299Z,15.63
2022-10-13T15:05:31.872Z,7.17
2022-10-13T15:07:58.284Z,12.63
2022-10-13T15:10:24.778Z,4.77
2022-10-13T15:12:51.188Z,8.37
2022-10-13T15:15:17.703Z,6.13
2022-10-13T15:17:44.076Z,7.53
2022-10-13T15:20:10.771Z,9.60
2022-10-13T15:22:37.405Z,8.03
2022-10-13T15:25:07.758Z,7.50
2022-10-13T15:27:39.310Z,9.00
2022-10-13T15:30:08.839Z,9.57
2022-10-13T15:32:35.326Z,14.20
2022-10-13T15:35:02.020Z,7.77
2022-10-13T15:37:28.377Z,5.83
2022-10-13T15:39:57.398Z,8.27
2022-10-13T15:42:24.304Z,7.37
2022-10-13T15:45:08.781Z,5.20
2022-10-13T15:47:36.419Z,9.93
2022-10-13T15:50:03.648Z,9.23
2022-10-13T15:52:34.690Z,9.37
2022-10-13T15:55:02.025Z,8.33
2022-10-13T15:57:28.505Z,6.60
2022-10-13T15:59:54.884Z,11.07
2022-10-13T16:02:23.209Z,9.03
2022-10-13T16:04:50.640Z,9.93
2022-10-13T16:07:18.407Z,11.47
2022-10-13T16:09:45.259Z,9.07
2022-10-13T16:12:11.693Z,12.17
2022-10-13T16:14:38.095Z,7.03
2022-10-13T16:17:04.466Z,15.50
2022-10-13T16:19:30.992Z,10.57
2022-10-13T16:21:57.435Z,11.50
2022-10-13T16:24:23.884Z,8.03
2022-10-13T16:26:50.292Z,11.90
2022-10-13T16:29:16.912Z,8.37
2022-10-13T16:31:43.358Z,12.90
2022-10-13T16:34:10.609Z,14.50
2022-10-13T16:36:37.136Z,12.40
2022-10-13T16:39:03.607Z,9.43
2022-10-13T16:41:30.017Z,11.67
2022-10-13T16:43:56.597Z,12.67
2022-10-13T16:46:23.703Z,12.73
2022-10-13T16:48:50.188Z,9.73
2022-10-13T16:51:22.529Z,10.03
2022-10-13T16:54:03.908Z,8.73
2022-10-13T16:56:31.793Z,8.77
2022-10-13T16:59:04.548Z,11.90
2022-10-13T17:01:32.396Z,17.33
2022-10-13T17:03:59.718Z,12.03
2022-10-13T17:06:28.465Z,14.17
2022-10-13T17:08:57.743Z,14.67
2022-10-13T17:11:30.373Z,13.30
2022-10-13T17:13:58.038Z,17.27
2022-10-13T17:16:25.284Z,14.87
2022-10-13T17:18:51.755Z,10.47
2022-10-13T17:21:18.337Z,12.37
2022-10-13T17:23:48.678Z,12.20
2022-10-13T17:26:17.438Z,13.13
2022-10-13T17:28:44.548Z,11.93
2022-10-13T17:31:20.651Z,10.87
2022-10-13T17:33:48.442Z,12.33
2022-10-13T17:36:16.726Z,7.73
2022-10-13T17:38:43.762Z,13.27
2022-10-13T17:41:11.184Z,7.90
2022-10-13T17:43:39.011Z,12.83
2022-10-13T17:46:35.026Z,12.67
2022-10-13T17:48:59.396Z,8.70
2022-10-13T17:51:25.971Z,10.90
2022-10-13T17:53:52.881Z,11.53
2022-10-13T17:56:21.881Z,9.37
2022-10-13T17:58:50.274Z,10.80
2022-10-13T18:01:19.714Z,15.53
2022-10-13T18:03:49.814Z,16.00
2022-10-13T18:06:17.020Z,14.20
2022-10-13T18:08:43.839Z,11.97
2022-10-13T18:11:16.902Z,15.60
2022-10-13T18:13:44.999Z,12.73
2022-10-13T18:16:22.213Z,10.00
2022-10-13T18:18:50.054Z,10.23
2022-10-13T18:21:19.542Z,12.50
2022-10-13T18:23:46.281Z,9.80
2022-10-13T18:26:15.258Z,12.37
2022-10-13T18:28:43.594Z,11.93
2022-10-13T18:31:13.876Z,13.13
2022-10-13T18:33:40.902Z,13.47
2022-10-13T18:36:15.153Z,14.97
2022-10-13T18:38:41.718Z,15.83
2022-10-13T18:41:08.252Z,13.77
2022-10-13T18:43:34.819Z,13.20
2022-10-13T18:46:02.379Z,11.90
2022-10-13T18:48:28.893Z,13.47
2022-10-13T18:50:55.323Z,11.97
2022-10-13T18:53:21.799Z,15.07
2022-10-13T18:55:48.405Z,11.40
2022-10-13T18:58:14.856Z,15.43
2022-10-13T19:00:41.290Z,14.23
2022-10-13T19:03:08.227Z,20.13
2022-10-13T19:05:39.317Z,15.30
2022-10-13T19:08:09.317Z,12.00
2022-10-13T19:10:36.448Z,16.10
2022-10-13T19:13:03.650Z,18.47
2022-10-13T19:15:30.206Z,17.87
2022-10-13T19:17:56.603Z,20.63
2022-10-13T19:20:23.032Z,24.57
2022-10-13T19:22:49.474Z,16.33
2022-10-13T19:25:15.868Z,13.23
2022-10-13T19:27:42.279Z,12.93
2022-10-13T19:30:09.381Z,12.93
2022-10-13T19:32:38.591Z,11.60
2022-10-13T19:35:05.672Z,14.23
2022-10-13T19:37:32.186Z,14.47
2022-10-13T19:39:58.580Z,11.03
2022-10-13T19:42:25.009Z,13.57
2022-10-13T19:44:51.379Z,15.63
2022-10-13T19:47:18.115Z,12.13
2022-10-13T19:49:44.735Z,11.63
2022-10-13T19:52:11.134Z,13.43
2022-10-13T19:54:37.506Z,14.77
2022-10-13T19:57:03.909Z,12.13
2022-10-13T19:59:30.394Z,12.23
2022-10-13T20:01:57.412Z,11.83
2022-10-13T20:04:24.789Z,14.57
2022-10-13T20:06:51.405Z,13.53
2022-10-13T20:09:19.423Z,13.03
2022-10-13T20:11:48.161Z,12.27
2022-10-13T20:14:14.913Z,14.87
2022-10-13T20:16:41.817Z,11.87
2022-10-13T20:19:08.252Z,16.67
2022-10-13T20:21:34.636Z,12.83
2022-10-13T20:24:01.034Z,14.60
2022-10-13T20:26:27.480Z,19.30
2022-10-13T20:28:54.906Z,14.30
2022-10-13T20:31:22.704Z,14.53
2022-10-13T20:33:54.140Z,13.10
2022-10-13T20:36:20.804Z,16.97
2022-10-13T20:38:49.099Z,12.97
2022-10-13T20:41:27.433Z,15.67
2022-10-13T20:43:56.204Z,14.30
2022-10-13T20:46:26.045Z,11.20
2022-10-13T20:51:40.712Z,16.80
2022-10-13T20:54:07.699Z,14.87
2022-10-13T20:56:34.073Z,13.43
2022-10-13T20:59:24.050Z,13.43
2022-10-13T21:01:50.429Z,13.43
2022-10-13T21:04:16.833Z,10.67
2022-10-13T21:06:43.403Z,15.30
2022-10-13T21:09:09.943Z,11.17
2022-10-13T21:11:36.510Z,11.63
2022-10-13T21:14:06.676Z,12.67
2022-10-13T21:16:33.219Z,13.93
2022-10-13T21:18:59.677Z,11.90
2022-10-13T21:21:31.323Z,17.40
2022-10-13T21:24:04.390Z,18.40
2022-10-13T21:26:32.274Z,12.57
2022-10-13T21:28:59.383Z,13.13
2022-10-13T21:31:26.450Z,11.43
2022-10-13T21:33:53.577Z,11.13
2022-10-13T21:36:31.669Z,13.97
2022-10-13T21:39:00.403Z,13.97
2022-10-13T21:41:28.010Z,11.53
2022-10-13T21:43:54.779Z,10.30
2022-10-13T21:46:25.841Z,17.57
2022-10-13T21:48:54.138Z,12.40
2022-10-13T21:51:25.845Z,11.53
2022-10-13T21:53:54.871Z,18.00
2022-10-13T21:56:22.229Z,12.47
2022-10-13T21:58:49.231Z,13.30
2022-10-13T22:01:19.825Z,13.00
2022-10-13T22:03:47.130Z,11.43
2022-10-13T22:06:19.287Z,11.47
2022-10-13T22:08:49.435Z,14.27
2022-10-13T22:11:16.725Z,14.23
2022-10-13T22:13:43.076Z,9.63
2022-10-13T22:16:12.707Z,15.77
2022-10-13T22:18:39.107Z,14.10
2022-10-13T22:21:21.119Z,11.73
2022-10-13T22:23:48.173Z,15.37
2022-10-13T22:26:17.044Z,14.00
2022-10-13T22:28:44.159Z,14.27
2022-10-13T22:31:13.872Z,17.30
2022-10-13T22:33:41.912Z,12.43
2022-10-13T22:36:10.651Z,17.20
2022-10-13T22:38:37.088Z,15.40
2022-10-13T22:41:05.828Z,13.23
2022-10-13T22:43:32.749Z,10.77
2022-10-13T22:45:59.240Z,18.53
2022-10-13T22:48:25.619Z,12.87
2022-10-13T22:50:52.188Z,16.37
2022-10-13T22:53:18.860Z,12.77
2022-10-13T22:55:45.501Z,11.43
2022-10-13T22:58:12.062Z,10.77
2022-10-13T23:00:39.171Z,12.53
2022-10-13T23:03:06.217Z,13.10
2022-10-13T23:05:32.701Z,13.17
2022-10-13T23:07:59.116Z,12.03
2022-10-13T23:10:25.677Z,16.50
2022-10-13T23:12:52.074Z,12.13
2022-10-13T23:15:18.435Z,13.07
2022-10-13T23:17:45.217Z,9.03
2022-10-13T23:20:12.050Z,10.83
2022-10-13T23:22:38.436Z,9.57
2022-10-13T23:25:05.101Z,9.67
2022-10-13T23:27:31.456Z,11.83
2022-10-13T23:29:57.823Z,12.37
2022-10-13T23:32:24.243Z,10.67
2022-10-13T23:34:50.729Z,8.43
2022-10-13T23:37:17.653Z,13.33
2022-10-13T23:39:43.984Z,10.50
2022-10-13T23:42:10.390Z,9.40
2022-10-13T23:44:36.704Z,12.27
2022-10-13T23:47:03.909Z,9.03
2022-10-13T23:49:30.255Z,10.53
2022-10-13T23:51:56.676Z,10.80
2022-10-13T23:54:23.019Z,11.23
2022-10-13T23:56:49.379Z,8.23
2022-10-13T23:59:15.763Z,8.73
